Time;durP1;ratioP1;P1;durP2;ratioP2;P2;SDS_P1;SDS_P2;PMS_P1;PMS_P2;Temp;Humidity;BMP_temperature;BMP_pressure;BME280_temperature;BME280_humidity;BME280_pressure;Samples;Min_cycle;Max_cycle;Signal;HPM_P1;HPM_P2
2022/01/26 00:07:19;;;;;;;113.13;49.47;;;3.20;99.90;;;;;;5050478;28;20292;-61
2022/01/26 00:09:45;;;;;;;116.00;50.43;;;3.20;99.90;;;;;;5043704;28;20116;-61
2022/01/26 00:12:11;;;;;;;147.30;60.77;;;3.20;99.90;;;;;;5031363;28;20038;-61
2022/01/26 00:14:42;;;;;;;134.52;55.10;;;3.10;99.90;;;;;;5043746;28;20041;-61
2022/01/26 00:17:10;;;;;;;121.65;49.92;;;3.10;99.90;;;;;;5030868;28;20037;-60
2022/01/26 00:22:12;;;;;;;157.52;58.22;;;3.10;99.90;;;;;;5029942;28;20037;-61
2022/01/26 00:24:54;;;;;;;142.25;56.00;;;3.10;99.90;;;;;;5045903;28;20640;-61
2022/01/26 00:29:57;;;;;;;115.47;50.87;;;3.10;99.90;;;;;;5050180;28;20524;-61
2022/01/26 00:40:40;;;;;;;139.20;56.00;;;3.10;99.90;;;;;;5050236;28;20053;-61
2022/01/26 00:43:20;;;;;;;102.78;46.72;;;3.10;99.90;;;;;;5050174;28;20048;-61
2022/01/26 00:45:49;;;;;;;105.28;47.38;;;3.10;99.90;;;;;;5049708;28;20041;-60
2022/01/26 00:48:20;;;;;;;128.88;53.55;;;3.00;99.90;;;;;;5049406;28;20102;-62
2022/01/26 00:50:50;;;;;;;126.63;51.83;;;3.00;99.90;;;;;;5049951;28;20452;-60
2022/01/26 00:53:16;;;;;;;132.00;55.00;;;3.00;99.90;;;;;;5050131;28;20603;-61
2022/01/26 00:55:42;;;;;;;109.32;46.22;;;3.00;99.90;;;;;;5049683;28;20068;-61
2022/01/26 00:58:08;;;;;;;107.47;47.90;;;3.00;99.90;;;;;;5049733;28;20037;-61
2022/01/26 01:00:33;;;;;;;110.83;48.00;;;3.00;99.90;;;;;;5049816;28;20029;-61
2022/01/26 01:03:01;;;;;;;106.57;44.67;;;3.10;99.90;;;;;;5049841;28;20076;-62
2022/01/26 01:05:33;;;;;;;99.53;46.03;;;3.00;99.90;;;;;;5048499;28;20406;-61
2022/01/26 01:08:02;;;;;;;105.75;46.20;;;3.00;99.90;;;;;;5049418;28;20131;-62
2022/01/26 01:10:28;;;;;;;101.57;45.47;;;3.00;99.90;;;;;;5048317;28;20064;-61
2022/01/26 01:12:57;;;;;;;98.30;44.13;;;3.00;99.90;;;;;;5049657;28;20063;-61
2022/01/26 01:15:24;;;;;;;107.82;46.17;;;3.00;99.90;;;;;;5048920;28;20037;-61
2022/01/26 01:17:55;;;;;;;107.70;46.00;;;2.90;99.90;;;;;;5049541;28;20460;-62
2022/01/26 01:26:24;;;;;;;105.93;45.20;;;2.90;99.90;;;;;;5029401;28;20041;-62
2022/01/26 01:31:49;;;;;;;103.50;45.80;;;2.80;99.90;;;;;;5050107;28;20127;-62
2022/01/26 01:34:21;;;;;;;104.15;45.17;;;2.80;99.90;;;;;;5047284;28;20123;-61
2022/01/26 01:36:50;;;;;;;113.60;50.17;;;2.80;99.90;;;;;;5049473;28;20041;-61
2022/01/26 01:39:18;;;;;;;113.80;45.97;;;2.80;99.90;;;;;;5048839;28;20032;-61
2022/01/26 01:41:45;;;;;;;97.80;42.15;;;2.80;99.90;;;;;;5049184;28;20157;-61
2022/01/26 01:44:11;;;;;;;107.88;46.35;;;2.80;99.90;;;;;;5049537;28;20409;-61
2022/01/26 01:46:38;;;;;;;111.72;45.33;;;2.70;99.90;;;;;;5048288;28;20052;-62
2022/01/26 01:49:06;;;;;;;109.45;46.05;;;2.70;99.90;;;;;;5048940;28;20051;-61
2022/01/26 01:51:36;;;;;;;103.10;44.42;;;2.70;99.90;;;;;;5048831;28;20060;-61
2022/01/26 01:54:03;;;;;;;103.47;44.95;;;2.70;99.90;;;;;;5048553;28;20037;-62
2022/01/26 01:56:28;;;;;;;110.45;49.90;;;2.70;99.90;;;;;;5048889;28;20098;-61
2022/01/26 01:58:57;;;;;;;109.05;50.63;;;2.70;99.90;;;;;;5049083;28;20088;-61
2022/01/26 02:01:23;;;;;;;100.20;42.97;;;2.70;99.90;;;;;;5047333;28;20102;-61
2022/01/26 02:03:49;;;;;;;102.83;47.10;;;2.70;99.90;;;;;;5049136;28;20541;-62
2022/01/26 02:06:14;;;;;;;106.30;45.70;;;2.70;99.90;;;;;;5064151;28;20321;-61
2022/01/26 02:08:41;;;;;;;98.27;44.50;;;2.70;99.90;;;;;;5048825;28;20045;-62
2022/01/26 02:11:09;;;;;;;;;;;2.60;99.90;;;;;;5047790;28;20484;-61
2022/01/26 02:13:45;;;;;;;101.80;44.50;;;2.60;99.90;;;;;;5049059;28;19967;-60
2022/01/26 02:16:20;;;;;;;102.72;45.20;;;2.60;99.90;;;;;;5048244;28;20452;-61
2022/01/26 02:54:22;;;;;;;107.03;43.90;;;2.50;99.90;;;;;;5048416;28;20045;-62
2022/01/26 03:02:04;;;;;;;103.38;41.40;;;2.50;99.90;;;;;;5048658;28;20767;-62
2022/01/26 03:04:43;;;;;;;90.25;38.15;;;2.50;99.90;;;;;;5062932;28;20064;-62
2022/01/26 03:10:07;;;;;;;101.93;40.83;;;2.40;99.90;;;;;;5024884;28;20434;-61
2022/01/26 03:12:45;;;;;;;95.57;39.28;;;2.40;99.90;;;;;;5026303;28;20490;-61
2022/01/26 03:15:17;;;;;;;87.28;34.35;;;2.40;99.90;;;;;;5021588;28;20204;-61
2022/01/26 03:20:14;;;;;;;101.97;41.35;;;2.40;99.90;;;;;;5024468;28;20120;-60
2022/01/26 03:31:28;;;;;;;96.27;38.73;;;2.40;99.90;;;;;;5024706;28;20172;-61
2022/01/26 03:33:51;;;;;;;97.28;38.83;;;2.30;99.90;;;;;;5026196;28;20049;-61
2022/01/26 03:36:13;;;;;;;91.40;37.88;;;2.40;99.90;;;;;;5011532;28;20518;-60
2022/01/26 03:38:43;;;;;;;88.00;36.42;;;2.30;99.90;;;;;;5029090;28;20518;-59
2022/01/26 03:41:19;;;;;;;99.57;39.00;;;2.30;99.90;;;;;;5027891;28;20504;-61
2022/01/26 03:43:45;;;;;;;93.20;36.75;;;2.30;99.90;;;;;;5029032;28;20053;-58
2022/01/26 03:46:10;;;;;;;88.90;35.47;;;2.30;99.90;;;;;;5033052;28;20053;-58
2022/01/26 03:48:36;;;;;;;91.10;35.65;;;2.30;99.90;;;;;;5051483;28;20048;-61
2022/01/26 03:51:02;;;;;;;79.63;33.13;;;2.30;99.90;;;;;;5051341;28;20049;-59
2022/01/26 03:53:28;;;;;;;89.10;34.88;;;2.30;99.90;;;;;;5046969;28;20037;-61
2022/01/26 03:55:53;;;;;;;88.43;33.85;;;2.30;99.90;;;;;;5050588;28;20059;-61
2022/01/26 03:58:19;;;;;;;89.47;35.03;;;2.30;99.90;;;;;;5050577;28;20068;-61
2022/01/26 04:00:44;;;;;;;91.63;35.13;;;2.30;99.90;;;;;;5051172;28;20036;-61
2022/01/26 04:03:10;;;;;;;87.27;37.77;;;2.30;99.90;;;;;;5051000;28;20452;-61
2022/01/26 04:05:36;;;;;;;94.70;36.07;;;2.30;99.90;;;;;;5049997;28;20302;-61
2022/01/26 04:08:08;;;;;;;94.27;37.07;;;2.40;99.90;;;;;;5050337;28;20036;-61
2022/01/26 04:10:51;;;;;;;101.30;37.33;;;2.40;99.90;;;;;;5049954;28;20048;-60
2022/01/26 04:13:17;;;;;;;94.50;36.90;;;2.30;99.90;;;;;;5050695;28;20041;-61
2022/01/26 04:15:42;;;;;;;98.37;38.17;;;2.30;99.90;;;;;;5041271;28;20091;-61
2022/01/26 04:18:13;;;;;;;90.87;35.27;;;2.40;99.90;;;;;;5050783;28;20045;-62
2022/01/26 04:20:42;;;;;;;89.88;34.47;;;2.40;99.90;;;;;;5051105;28;20040;-61
2022/01/26 04:23:17;;;;;;;90.85;34.67;;;2.40;99.90;;;;;;5050798;28;20040;-61
2022/01/26 04:25:46;;;;;;;100.32;38.90;;;2.40;99.90;;;;;;5050509;28;20055;-61
2022/01/26 04:28:18;;;;;;;86.70;35.17;;;2.40;99.90;;;;;;5051039;28;20048;-61
2022/01/26 04:30:43;;;;;;;87.82;35.97;;;2.40;99.90;;;;;;5049857;28;20093;-62
2022/01/26 04:33:09;;;;;;;81.77;33.73;;;2.30;99.90;;;;;;5050522;28;20045;-61
2022/01/26 04:35:35;;;;;;;87.97;32.57;;;2.30;99.90;;;;;;5049939;28;20047;-60
2022/01/26 04:40:50;;;;;;;90.40;35.75;;;2.30;99.90;;;;;;5065885;28;20107;-61
2022/01/26 04:43:21;;;;;;;86.10;30.80;;;2.30;99.90;;;;;;5050660;28;20099;-62
2022/01/26 04:45:46;;;;;;;88.05;34.63;;;2.30;99.90;;;;;;5047875;28;20090;-61
2022/01/26 04:48:12;;;;;;;87.73;35.13;;;2.20;99.90;;;;;;5050419;28;20044;-62
2022/01/26 04:50:38;;;;;;;95.72;35.13;;;2.20;99.90;;;;;;5049905;28;20047;-61
2022/01/26 04:53:03;;;;;;;88.93;37.07;;;2.20;99.90;;;;;;5050111;28;20043;-61
2022/01/26 04:55:29;;;;;;;88.90;34.17;;;2.20;99.90;;;;;;5049586;28;20511;-60
2022/01/26 04:57:55;;;;;;;91.13;35.07;;;2.20;99.90;;;;;;5049947;28;20416;-62
2022/01/26 05:00:20;;;;;;;96.10;35.77;;;2.20;99.90;;;;;;5050094;28;20043;-61
2022/01/26 05:02:46;;;;;;;89.73;35.03;;;2.20;99.90;;;;;;5050217;28;20041;-62
2022/01/26 05:05:12;;;;;;;88.33;33.30;;;2.10;99.90;;;;;;5049513;28;20052;-61
2022/01/26 05:07:38;;;;;;;90.75;36.80;;;2.10;99.90;;;;;;5049759;28;20283;-61
2022/01/26 05:10:04;;;;;;;94.10;37.30;;;2.10;99.90;;;;;;5048212;28;20049;-62
2022/01/26 05:12:30;;;;;;;93.47;34.83;;;2.10;99.90;;;;;;5049421;28;20044;-61
2022/01/26 05:14:55;;;;;;;95.82;35.85;;;2.10;99.90;;;;;;5048911;28;20417;-62
2022/01/26 05:17:23;;;;;;;83.10;31.73;;;2.10;99.90;;;;;;5049614;28;20037;-61
2022/01/26 05:19:54;;;;;;;81.30;33.38;;;2.10;99.90;;;;;;5049588;28;20214;-61
2022/01/26 05:22:19;;;;;;;83.07;30.60;;;2.00;99.90;;;;;;5049638;28;20106;-62
2022/01/26 05:24:45;;;;;;;86.57;32.83;;;2.10;99.90;;;;;;5049109;28;20482;-62
2022/01/26 05:27:10;;;;;;;84.10;33.00;;;2.10;99.90;;;;;;5049289;28;20045;-62
2022/01/26 05:29:36;;;;;;;87.93;33.33;;;2.10;99.90;;;;;;5048369;28;20041;-61
2022/01/26 05:32:02;;;;;;;84.30;31.57;;;2.10;99.90;;;;;;5049717;28;20051;-61
2022/01/26 05:34:27;;;;;;;85.23;32.33;;;2.10;99.90;;;;;;5046252;28;20214;-62
2022/01/26 05:36:53;;;;;;;89.83;31.83;;;2.10;99.90;;;;;;5049290;28;20104;-61
2022/01/26 05:39:18;;;;;;;92.30;33.07;;;2.10;99.90;;;;;;5048973;28;20452;-62
2022/01/26 05:41:44;;;;;;;90.60;31.30;;;2.10;99.90;;;;;;5049414;28;20041;-61
2022/01/26 05:44:09;;;;;;;81.23;32.23;;;2.10;99.90;;;;;;5048676;28;20040;-60
2022/01/26 05:46:43;;;;;;;84.03;32.83;;;2.10;99.90;;;;;;5048577;28;20071;-61
2022/01/26 05:49:10;;;;;;;90.15;35.65;;;2.10;99.90;;;;;;5049267;28;20060;-61
2022/01/26 05:51:36;;;;;;;87.53;32.72;;;2.10;99.90;;;;;;5049113;28;20056;-61
2022/01/26 05:54:02;;;;;;;82.15;30.50;;;2.10;99.90;;;;;;5049280;28;20108;-59
2022/01/26 05:56:29;;;;;;;;;;;2.10;99.90;;;;;;5048844;28;20067;-61
2022/01/26 05:58:55;;;;;;;85.10;31.48;;;2.10;99.90;;;;;;5047745;28;19920;-61
2022/01/26 06:01:21;;;;;;;81.20;30.23;;;2.10;99.90;;;;;;5047535;28;20056;-62
2022/01/26 06:03:47;;;;;;;82.53;29.00;;;2.10;99.90;;;;;;5054051;28;20335;-62
2022/01/26 06:06:15;;;;;;;89.75;33.88;;;2.10;99.90;;;;;;5054996;28;20399;-62
2022/01/26 06:08:40;;;;;;;92.57;32.00;;;2.10;99.90;;;;;;5067789;28;20045;-62
2022/01/26 06:11:06;;;;;;;81.90;33.27;;;2.10;99.90;;;;;;5048360;28;20525;-62
2022/01/26 06:13:32;;;;;;;87.33;30.93;;;2.10;99.90;;;;;;5048261;28;20414;-61
2022/01/26 06:15:58;;;;;;;83.80;29.13;;;2.10;99.90;;;;;;5042849;28;20074;-61
2022/01/26 06:18:23;;;;;;;82.65;29.70;;;2.10;99.90;;;;;;5048595;28;20037;-61
2022/01/26 06:20:49;;;;;;;87.43;31.70;;;2.10;99.90;;;;;;5048595;28;20037;-61
2022/01/26 06:23:15;;;;;;;80.13;30.17;;;2.10;99.90;;;;;;5046879;28;20067;-61
2022/01/26 06:25:41;;;;;;;80.15;31.30;;;2.10;99.90;;;;;;5048199;28;20069;-62
2022/01/26 06:28:11;;;;;;;78.07;29.20;;;2.10;99.90;;;;;;5046745;28;20485;-60
2022/01/26 06:30:37;;;;;;;78.32;31.00;;;2.10;99.90;;;;;;5048134;28;20508;-61
2022/01/26 06:33:04;;;;;;;73.78;28.60;;;2.10;99.90;;;;;;5043700;28;20114;-62
2022/01/26 06:35:30;;;;;;;85.45;31.17;;;2.10;99.90;;;;;;5046820;28;20464;-61
2022/01/26 06:37:56;;;;;;;78.40;28.40;;;2.10;99.90;;;;;;5046330;28;20045;-62
2022/01/26 06:40:23;;;;;;;74.57;27.23;;;2.10;99.90;;;;;;5063496;28;20051;-61
2022/01/26 06:43:06;;;;;;;75.35;27.90;;;2.10;99.90;;;;;;5040226;28;20399;-62
2022/01/26 06:45:36;;;;;;;68.53;26.35;;;2.10;99.90;;;;;;5063535;28;20124;-61
2022/01/26 06:48:27;;;;;;;70.47;26.30;;;2.20;99.90;;;;;;5047933;28;20040;-61
2022/01/26 06:50:47;;;;;;;73.03;27.77;;;2.20;99.90;;;;;;5045694;28;20120;-61
2022/01/26 06:53:13;;;;;;;76.27;28.53;;;2.10;99.90;;;;;;5046743;28;20108;-62
2022/01/26 06:55:40;;;;;;;74.75;27.13;;;2.20;99.90;;;;;;5047760;28;20505;-62
2022/01/26 06:58:05;;;;;;;79.65;29.27;;;2.20;99.90;;;;;;5048372;28;20669;-62
2022/01/26 07:00:31;;;;;;;68.97;24.53;;;2.20;99.90;;;;;;5046963;28;20131;-62
2022/01/26 07:02:57;;;;;;;73.63;25.20;;;2.20;99.90;;;;;;5048506;28;20128;-60
2022/01/26 07:05:23;;;;;;;61.03;25.73;;;2.20;99.90;;;;;;5047224;28;20127;-61
2022/01/26 07:07:49;;;;;;;63.08;23.38;;;2.20;99.90;;;;;;5048771;28;20045;-59
2022/01/26 07:10:15;;;;;;;57.65;22.98;;;2.20;99.90;;;;;;5047379;28;20042;-62
2022/01/26 07:12:40;;;;;;;65.97;25.70;;;2.20;99.90;;;;;;5032644;28;20144;-62
2022/01/26 07:23:01;;;;;;;63.20;23.23;;;2.20;99.90;;;;;;5057125;28;20045;-61
2022/01/26 07:25:26;;;;;;;60.58;24.60;;;2.30;99.90;;;;;;5051840;28;20037;-63
2022/01/26 07:27:52;;;;;;;65.60;24.30;;;2.30;99.90;;;;;;5051818;28;20560;-62
2022/01/26 07:30:18;;;;;;;58.90;25.10;;;2.30;99.90;;;;;;5050163;28;20410;-62
2022/01/26 07:32:44;;;;;;;56.60;22.98;;;2.30;99.90;;;;;;5051877;28;20037;-61
2022/01/26 07:35:10;;;;;;;62.22;24.63;;;2.30;99.90;;;;;;5050815;28;20041;-61
2022/01/26 07:37:35;;;;;;;73.33;25.63;;;2.30;99.90;;;;;;5051579;28;20037;-62
2022/01/26 07:40:06;;;;;;;67.83;27.00;;;2.30;99.90;;;;;;5049918;28;20032;-62
2022/01/26 07:42:33;;;;;;;74.65;25.80;;;2.30;99.90;;;;;;5051615;28;20520;-61
2022/01/26 07:44:58;;;;;;;76.72;27.80;;;2.30;99.90;;;;;;5046702;28;20120;-61
2022/01/26 07:47:24;;;;;;;80.97;33.35;;;2.30;99.90;;;;;;5051884;28;20125;-62
2022/01/26 07:49:54;;;;;;;81.57;32.87;;;2.30;99.90;;;;;;5051168;28;20033;-62
2022/01/26 07:52:19;;;;;;;82.50;32.25;;;2.40;99.90;;;;;;5050199;28;20087;-62
2022/01/26 07:54:47;;;;;;;79.63;33.17;;;2.40;99.90;;;;;;5050833;28;20073;-62
2022/01/26 07:57:13;;;;;;;88.35;35.03;;;2.40;99.90;;;;;;5031478;28;20046;-62
2022/01/26 07:59:38;;;;;;;89.37;35.70;;;2.40;99.90;;;;;;5036669;28;20045;-62
2022/01/26 08:02:04;;;;;;;92.47;36.07;;;2.50;99.90;;;;;;5051192;28;20046;-62
2022/01/26 08:04:30;;;;;;;94.30;39.13;;;2.40;99.90;;;;;;5051010;28;20044;-63
2022/01/26 08:06:55;;;;;;;90.27;36.40;;;2.40;99.90;;;;;;5046265;28;20040;-61
2022/01/26 08:09:21;;;;;;;97.90;39.13;;;2.50;99.90;;;;;;5050881;28;20076;-62
2022/01/26 08:11:46;;;;;;;92.27;43.13;;;2.50;99.90;;;;;;5050577;28;20071;-61
2022/01/26 08:14:12;;;;;;;86.10;35.97;;;2.50;99.90;;;;;;5050318;28;20052;-60
2022/01/26 08:16:38;;;;;;;89.67;38.50;;;2.50;99.90;;;;;;5047078;28;20025;-62
2022/01/26 08:19:04;;;;;;;;;;;2.50;99.90;;;;;;5051771;28;20036;-63
2022/01/26 08:21:30;;;;;;;95.65;38.25;;;2.50;99.90;;;;;;5050980;28;20346;-61
2022/01/26 08:24:02;;;;;;;103.30;41.80;;;2.50;99.90;;;;;;5050558;28;20799;-60
2022/01/26 08:26:38;;;;;;;105.22;44.25;;;2.50;99.90;;;;;;5050083;28;20052;-56
2022/01/26 08:29:06;;;;;;;102.05;43.42;;;2.60;99.90;;;;;;5049488;28;20124;-61
2022/01/26 08:31:32;;;;;;;101.32;44.00;;;2.60;99.90;;;;;;5050388;28;20071;-61
2022/01/26 08:33:57;;;;;;;104.23;47.77;;;2.60;99.90;;;;;;5050447;28;20638;-61
2022/01/26 08:36:23;;;;;;;97.23;41.60;;;2.60;99.90;;;;;;5050263;28;20028;-59
2022/01/26 08:38:49;;;;;;;109.33;47.10;;;2.60;99.90;;;;;;5050866;28;20056;-60
2022/01/26 08:41:14;;;;;;;109.63;45.87;;;2.60;99.90;;;;;;5048191;28;20033;-59
2022/01/26 08:43:40;;;;;;;113.45;47.78;;;2.60;99.90;;;;;;5050600;28;20076;-59
2022/01/26 08:46:06;;;;;;;109.03;46.40;;;2.70;99.90;;;;;;5049808;28;20077;-61
2022/01/26 08:48:32;;;;;;;116.83;49.03;;;2.70;99.90;;;;;;5044525;28;20052;-59
2022/01/26 08:50:57;;;;;;;124.50;52.23;;;2.70;99.90;;;;;;5050466;28;20344;-59
2022/01/26 08:53:23;;;;;;;115.37;51.47;;;2.70;99.90;;;;;;5049626;28;20040;-59
2022/01/26 08:55:51;;;;;;;122.32;53.10;;;2.70;99.90;;;;;;5049276;28;20051;-59
2022/01/26 08:58:17;;;;;;;119.95;47.97;;;2.80;99.90;;;;;;5049694;28;20041;-59
2022/01/26 09:00:43;;;;;;;134.32;53.38;;;2.80;99.90;;;;;;5060834;28;20040;-59
2022/01/26 09:03:08;;;;;;;128.33;54.00;;;2.80;99.90;;;;;;5030320;28;20389;-60
2022/01/26 09:05:34;;;;;;;117.90;52.20;;;2.80;99.90;;;;;;5041028;28;20090;-59
2022/01/26 09:08:00;;;;;;;129.70;56.37;;;2.80;99.90;;;;;;5050321;28;20051;-58
2022/01/26 09:10:28;;;;;;;127.82;57.17;;;2.80;99.90;;;;;;5049436;28;20128;-60
2022/01/26 09:12:54;;;;;;;131.35;53.83;;;2.80;99.90;;;;;;5050157;28;20044;-61
2022/01/26 09:15:26;;;;;;;121.00;54.03;;;2.80;99.90;;;;;;5051020;28;20041;-59
2022/01/26 09:17:52;;;;;;;134.32;55.30;;;2.90;99.90;;;;;;5043598;28;20091;-59
2022/01/26 09:20:17;;;;;;;141.43;56.65;;;2.90;99.90;;;;;;5038595;28;20120;-60
2022/01/26 09:22:43;;;;;;;126.03;54.33;;;2.90;99.90;;;;;;5049004;28;20175;-59
2022/01/26 09:25:09;;;;;;;128.67;58.10;;;2.90;99.90;;;;;;5049243;28;20041;-59
2022/01/26 09:27:36;;;;;;;140.10;59.97;;;2.90;99.90;;;;;;5049338;28;20041;-59
2022/01/26 09:30:03;;;;;;;135.65;59.92;;;3.00;99.90;;;;;;5045867;28;20150;-59
2022/01/26 09:32:29;;;;;;;139.20;59.88;;;3.00;99.90;;;;;;5059948;28;20048;-59
2022/01/26 09:34:54;;;;;;;142.97;60.43;;;2.90;99.90;;;;;;5060610;28;20413;-59
2022/01/26 09:37:20;;;;;;;147.90;58.93;;;3.00;99.90;;;;;;5067652;28;20056;-58
2022/01/26 09:39:47;;;;;;;140.73;61.93;;;3.00;99.90;;;;;;5058639;28;20487;-60
2022/01/26 09:42:14;;;;;;;134.50;61.15;;;3.00;99.90;;;;;;5064725;28;20465;-59
2022/01/26 09:44:40;;;;;;;154.10;63.88;;;3.00;99.90;;;;;;5064287;28;20040;-59
2022/01/26 09:47:07;;;;;;;140.07;58.35;;;3.10;99.90;;;;;;5061758;28;20128;-59
2022/01/26 09:49:34;;;;;;;;;;;3.10;99.90;;;;;;5059884;28;20055;-61
2022/01/26 09:52:13;;;;;;;147.77;63.03;;;3.10;99.90;;;;;;5060243;28;19923;-62
2022/01/26 09:54:41;;;;;;;159.45;67.00;;;3.10;99.90;;;;;;5065095;28;20090;-61
2022/01/26 09:57:07;;;;;;;154.82;65.88;;;3.20;99.90;;;;;;5064074;28;20029;-60
2022/01/26 09:59:33;;;;;;;158.48;64.63;;;3.20;99.90;;;;;;5063897;28;20115;-60
2022/01/26 10:01:59;;;;;;;146.18;64.13;;;3.10;99.90;;;;;;5060770;28;20116;-62
2022/01/26 10:04:32;;;;;;;144.68;62.05;;;3.10;99.90;;;;;;5067921;28;20592;-62
2022/01/26 10:10:34;;;;;;;161.07;68.40;;;3.20;99.90;;;;;;5061398;28;20055;-61
2022/01/26 10:18:09;;;;;;;154.57;68.05;;;3.20;99.90;;;;;;5065374;28;20513;-61
2022/01/26 10:20:44;;;;;;;152.45;65.10;;;3.20;99.90;;;;;;5063349;28;20037;-61
2022/01/26 10:23:13;;;;;;;152.80;64.97;;;3.30;99.90;;;;;;5065441;28;20041;-61
2022/01/26 10:25:42;;;;;;;162.70;68.38;;;3.30;99.90;;;;;;5065396;28;20037;-60
2022/01/26 10:28:11;;;;;;;153.15;65.90;;;3.30;99.90;;;;;;5064552;28;20437;-61
2022/01/26 10:30:36;;;;;;;159.63;68.65;;;3.30;99.90;;;;;;5059609;28;20047;-61
2022/01/26 10:33:11;;;;;;;157.17;64.70;;;3.30;99.90;;;;;;5067778;28;20405;-61
2022/01/26 10:35:37;;;;;;;150.80;64.25;;;3.30;99.90;;;;;;5060221;28;20475;-61
2022/01/26 10:38:04;;;;;;;147.70;64.70;;;3.40;99.90;;;;;;5066596;28;20123;-60
2022/01/26 10:40:31;;;;;;;150.65;65.65;;;3.30;99.90;;;;;;5060659;28;20422;-61
2022/01/26 10:43:04;;;;;;;154.35;62.53;;;3.40;99.90;;;;;;5068307;28;20032;-62
2022/01/26 10:45:34;;;;;;;152.05;65.05;;;3.40;99.90;;;;;;5069759;28;20438;-62
2022/01/26 10:48:11;;;;;;;149.00;66.07;;;3.40;99.90;;;;;;5069856;28;20048;-61
2022/01/26 10:53:16;;;;;;;147.25;64.22;;;3.40;99.90;;;;;;5068463;28;20121;-62
2022/01/26 10:55:42;;;;;;;148.07;65.45;;;3.40;99.90;;;;;;5066969;28;20043;-61
2022/01/26 10:58:08;;;;;;;151.20;65.72;;;3.50;99.90;;;;;;5069341;28;20510;-62
2022/01/26 11:00:39;;;;;;;156.50;63.08;;;3.50;99.90;;;;;;5056243;28;20120;-61
2022/01/26 11:03:06;;;;;;;153.32;62.92;;;3.50;99.90;;;;;;5053270;28;20124;-60
2022/01/26 11:05:32;;;;;;;145.95;61.15;;;3.50;99.90;;;;;;5052654;28;20036;-61
2022/01/26 11:07:59;;;;;;;129.35;58.20;;;3.50;99.90;;;;;;5059053;28;20036;-61
2022/01/26 11:10:37;;;;;;;142.40;62.58;;;3.60;99.90;;;;;;5064982;28;20036;-60
2022/01/26 11:13:04;;;;;;;136.27;59.05;;;3.60;99.90;;;;;;5060448;28;20498;-60
2022/01/26 11:15:29;;;;;;;130.88;59.95;;;3.60;99.90;;;;;;5062055;28;20443;-62
2022/01/26 11:18:29;;;;;;;134.37;57.30;;;3.60;99.90;;;;;;5063144;28;20033;-61
2022/01/26 11:20:55;;;;;;;113.55;51.90;;;3.70;99.90;;;;;;5016913;28;20058;-61
2022/01/26 11:23:33;;;;;;;123.40;53.07;;;3.70;99.90;;;;;;4999938;28;20042;-61
2022/01/26 11:25:59;;;;;;;122.80;52.58;;;3.70;99.90;;;;;;5017232;28;20052;-60
2022/01/26 11:28:27;;;;;;;123.03;50.97;;;3.80;99.90;;;;;;5019701;28;20116;-61
2022/01/26 11:30:58;;;;;;;118.40;53.40;;;3.80;99.90;;;;;;5016564;28;20077;-61
2022/01/26 11:33:27;;;;;;;124.57;54.38;;;3.80;99.90;;;;;;5019966;28;20538;-61
2022/01/26 11:35:54;;;;;;;124.65;54.20;;;3.90;99.90;;;;;;5017356;28;20034;-61
2022/01/26 11:38:51;;;;;;;109.13;50.60;;;3.90;99.90;;;;;;5015800;28;20049;-61
2022/01/26 11:47:04;;;;;;;111.15;53.00;;;3.90;99.90;;;;;;5015584;28;20490;-61
2022/01/26 11:49:39;;;;;;;113.03;50.25;;;3.90;99.90;;;;;;5014376;28;20307;-59
2022/01/26 11:52:06;;;;;;;114.05;49.08;;;3.90;99.90;;;;;;5016047;28;20045;-61
2022/01/26 11:54:49;;;;;;;104.47;50.63;;;3.90;99.90;;;;;;5013254;28;20038;-62
2022/01/26 11:57:17;;;;;;;110.68;50.20;;;3.90;99.90;;;;;;5039655;28;20051;-61
2022/01/26 11:59:49;;;;;;;116.15;50.67;;;4.00;99.90;;;;;;5061503;28;20055;-61
2022/01/26 12:02:43;;;;;;;109.60;50.25;;;4.00;99.90;;;;;;5056335;28;20029;-61
2022/01/26 12:05:12;;;;;;;116.40;52.65;;;4.00;99.90;;;;;;5059163;28;20429;-61
2022/01/26 12:07:48;;;;;;;116.85;52.50;;;4.00;99.90;;;;;;5069305;28;20051;-60
2022/01/26 12:10:28;;;;;;;119.78;51.45;;;4.00;99.90;;;;;;5062655;28;20087;-61
2022/01/26 12:13:12;;;;;;;116.72;51.22;;;4.00;99.90;;;;;;5063662;28;20036;-61
2022/01/26 12:15:45;;;;;;;112.30;49.28;;;4.00;99.90;;;;;;5065932;28;20037;-61
2022/01/26 12:18:21;;;;;;;115.30;50.90;;;4.00;99.90;;;;;;5061414;28;20116;-61
2022/01/26 12:32:24;;;;;;;95.90;45.72;;;4.10;99.90;;;;;;5066012;28;20044;-60
2022/01/26 12:35:07;;;;;;;107.18;46.92;;;4.00;99.90;;;;;;5060078;28;20547;-61
2022/01/26 12:37:53;;;;;;;103.40;47.08;;;4.10;99.90;;;;;;5067865;28;20031;-62
2022/01/26 12:43:45;;;;;;;105.05;44.47;;;4.10;99.90;;;;;;5065869;28;20044;-60
2022/01/26 12:46:15;;;;;;;;;;;4.10;99.90;;;;;;5073714;28;20044;-60
2022/01/26 12:48:46;;;;;;;102.65;42.05;;;4.10;99.90;;;;;;5072130;28;19916;-62
2022/01/26 12:51:12;;;;;;;106.53;43.70;;;4.10;99.90;;;;;;5068610;28;20044;-61
2022/01/26 12:53:38;;;;;;;96.18;43.33;;;4.10;99.90;;;;;;5066619;28;20374;-61
2022/01/26 12:56:05;;;;;;;;;;;4.10;99.90;;;;;;5065769;28;20386;-61
2022/01/26 12:58:33;;;;;;;97.68;44.45;;;4.10;99.90;;;;;;5062722;28;19916;-62
2022/01/26 13:01:14;;;;;;;104.80;43.83;;;4.10;99.90;;;;;;5068483;28;20028;-61
2022/01/26 13:03:41;;;;;;;108.50;45.08;;;4.10;99.90;;;;;;5062710;28;20517;-61
2022/01/26 13:06:06;;;;;;;103.95;45.67;;;4.10;99.90;;;;;;5066178;28;20059;-61
2022/01/26 13:08:50;;;;;;;96.73;43.60;;;4.20;99.90;;;;;;5066193;28;20481;-61
2022/01/26 13:11:36;;;;;;;108.05;45.47;;;4.20;99.90;;;;;;5067118;28;20040;-61
2022/01/26 13:14:16;;;;;;;101.15;45.70;;;4.20;99.90;;;;;;5062710;28;20053;-61
2022/01/26 13:20:53;;;;;;;94.88;45.28;;;4.30;99.90;;;;;;5058235;28;20528;-61
2022/01/26 13:25:55;;;;;;;91.53;41.90;;;4.30;99.90;;;;;;5024475;28;20060;-61
2022/01/26 13:31:51;;;;;;;91.95;43.35;;;4.20;99.90;;;;;;5008293;28;20107;-61
2022/01/26 13:50:18;;;;;;;93.20;44.15;;;4.30;99.90;;;;;;5024309;28;20099;-62
2022/01/26 13:53:35;;;;;;;98.38;43.13;;;4.30;99.90;;;;;;5024219;28;20121;-60
2022/01/26 13:58:25;;;;;;;91.03;41.25;;;4.30;99.90;;;;;;5024580;28;20064;-61
2022/01/26 14:00:58;;;;;;;93.22;41.65;;;4.30;99.90;;;;;;5025870;28;20049;-62
2022/01/26 14:03:27;;;;;;;86.10;40.60;;;4.30;99.90;;;;;;5061635;28;20036;-60
2022/01/26 14:05:52;;;;;;;93.35;40.83;;;4.40;99.90;;;;;;5053586;28;20060;-61
2022/01/26 14:08:18;;;;;;;86.87;38.70;;;4.40;99.90;;;;;;5065094;28;20037;-60
2022/01/26 14:10:46;;;;;;;98.97;42.27;;;4.40;99.90;;;;;;5065899;28;20064;-61
2022/01/26 14:13:12;;;;;;;94.95;43.47;;;4.30;99.90;;;;;;5065328;28;20040;-61
2022/01/26 14:15:45;;;;;;;96.20;42.50;;;4.30;99.90;;;;;;5062877;28;20093;-60
2022/01/26 14:20:53;;;;;;;95.70;41.43;;;4.30;99.90;;;;;;5065017;28;20112;-61
2022/01/26 14:25:51;;;;;;;92.03;41.92;;;4.30;99.90;;;;;;5061852;28;20041;-61
2022/01/26 14:28:20;;;;;;;97.70;43.70;;;4.30;99.90;;;;;;5065742;28;20051;-61
2022/01/26 14:50:57;;;;;;;95.65;40.20;;;4.30;99.90;;;;;;5066910;28;20048;-61
2022/01/26 15:40:33;;;;;;;81.63;35.97;;;4.50;99.90;;;;;;5062407;28;20082;-62
2022/01/26 15:51:01;;;;;;;80.55;33.75;;;4.50;99.90;;;;;;5062881;28;20052;-61
2022/01/26 16:35:09;;;;;;;72.72;31.75;;;4.70;99.90;;;;;;5065861;28;20045;-61
2022/01/26 16:52:50;;;;;;;72.18;31.60;;;4.70;99.90;;;;;;5049848;28;20136;-62
2022/01/26 17:12:03;;;;;;;81.30;37.75;;;4.70;99.90;;;;;;5049639;28;20049;-62
2022/01/26 17:26:32;;;;;;;78.50;36.33;;;4.60;99.90;;;;;;5049106;28;20053;-61
2022/01/26 18:33:02;;;;;;;74.85;34.85;;;4.90;99.90;;;;;;5047973;28;20048;-59
2022/01/26 18:49:14;;;;;;;64.32;36.55;;;5.00;99.90;;;;;;5046983;28;20398;-60
2022/01/26 18:51:44;;;;;;;79.55;36.13;;;5.00;99.90;;;;;;5047932;28;20040;-58
2022/01/26 18:54:11;;;;;;;70.18;34.30;;;5.00;99.90;;;;;;5046608;28;20497;-59
2022/01/26 18:56:39;;;;;;;70.80;35.90;;;5.00;99.90;;;;;;5047947;28;20452;-59
2022/01/26 18:59:05;;;;;;;72.60;36.50;;;5.00;99.90;;;;;;5046513;28;20511;-59
2022/01/26 19:01:33;;;;;;;76.38;37.22;;;5.00;99.90;;;;;;5048022;28;20033;-59
2022/01/26 19:03:58;;;;;;;85.57;37.15;;;5.10;99.90;;;;;;5050354;28;20043;-59
2022/01/26 19:06:24;;;;;;;72.20;36.77;;;5.10;99.90;;;;;;5046705;28;20145;-57
2022/01/26 19:08:49;;;;;;;67.80;35.70;;;5.10;99.90;;;;;;5067354;28;20062;-60
2022/01/26 19:11:16;;;;;;;72.33;35.43;;;5.10;99.90;;;;;;5052023;28;20132;-60
2022/01/26 19:13:45;;;;;;;70.88;36.60;;;5.10;99.90;;;;;;5067555;28;20045;-59
2022/01/26 19:16:22;;;;;;;71.47;36.00;;;5.10;99.90;;;;;;5051927;28;20044;-60
2022/01/26 19:21:39;;;;;;;74.35;37.47;;;5.10;99.90;;;;;;5058318;28;20044;-59